Погода Кавадарцина неделю

Скопье, Македония

17 - 23 июля
  • 17июля
    Сегодня
    +25°
    +42°
    Ясно и безоблачно
    ВремяПогодаТемператураВлажностьДавлениеВетер, м/сВероятность осадков
    02:00Ясно и безоблачно+27°C49 %734 мм0.9 м/с2 %
    05:00Ясно и безоблачно+25°C52 %735 мм0.4 м/с2 %
    08:00Ясно и безоблачно+28°C40 %736 мм0.7 м/с2 %
    11:00Ясно и безоблачно+37°C28 %737 мм1.2 м/с2 %
    14:00Ясно и безоблачно+41°C22 %736 мм1.9 м/с2 %
    17:00Ясно и безоблачно+41°C21 %735 мм1.3 м/с2 %
    20:00Практически безоблачно+34°C26 %735 мм2.3 м/с2 %
    23:00Ясно и безоблачно+29°C44 %736 мм1.0 м/с2 %
  • 18июля
    Четверг
    +26°
    +42°
    Ясно и безоблачно
    ВремяПогодаТемператураВлажностьДавлениеВетер, м/сВероятность осадков
    02:00Ясно и безоблачно+26°C49 %736 мм0.8 м/с2 %
    05:00Ясно и безоблачно+26°C53 %737 мм0.6 м/с2 %
    08:00Ясно и безоблачно+28°C42 %738 мм1.3 м/с2 %
    11:00Ясно и безоблачно+37°C31 %738 мм1.9 м/с2 %
    14:00Ясно и безоблачно+42°C23 %737 мм1.2 м/с2 %
    17:00Облачно с прояснениями+40°C28 %737 мм1.3 м/с17 %
    20:00Небольшая облачность+34°C44 %737 мм2.7 м/с2 %
    23:00Ясно и безоблачно+31°C55 %737 мм1.7 м/с2 %
  • 19июля
    Пятница
    +25°
    +41°
    Практически безоблачно
    ВремяПогодаТемператураВлажностьДавлениеВетер, м/сВероятность осадков
    02:00Ясно и безоблачно+28°C63 %737 мм0.7 м/с2 %
    05:00Ясно и безоблачно+27°C65 %737 мм0.5 м/с2 %
    08:00Ясно и безоблачно+29°C51 %737 мм1.9 м/с2 %
    11:00Ясно и безоблачно+36°C36 %737 мм2.0 м/с2 %
    14:00Практически безоблачно+41°C28 %735 мм1.8 м/с9 %
    17:00Практически безоблачно+39°C33 %735 мм1.9 м/с25 %
    20:00Ясно и безоблачно+34°C37 %735 мм2.5 м/с14 %
    23:00Ясно и безоблачно+30°C52 %735 мм1.2 м/с2 %
  • 20июля
    Суббота
    +23°
    +40°
    Ясно и безоблачно
    ВремяПогодаТемператураВлажностьДавлениеВетер, м/сВероятность осадков
    02:00Ясно и безоблачно+28°C60 %734 мм0.6 м/с2 %
    05:00Ясно и безоблачно+26°C67 %734 мм0.6 м/с2 %
    08:00Ясно и безоблачно+28°C55 %734 мм1.6 м/с2 %
    11:00Ясно и безоблачно+36°C40 %734 мм1.6 м/с8 %
    14:00Ясно и безоблачно+39°C29 %732 мм1.6 м/с20 %
    17:00Небольшая облачность+37°C35 %731 мм1.6 м/с42 %
    20:00Небольшая облачность и лёгкий дождик+33°C56 %733 мм2.5 м/с58 %
    23:00Ясно и безоблачно+28°C73 %732 мм0.3 м/с29 %
  • 21июля
    Воскресенье
    +23°
    +38°
    Ясно и безоблачно
    ВремяПогодаТемператураВлажностьДавлениеВетер, м/сВероятность осадков
    02:00Ясно и безоблачно+26°C79 %732 мм0.5 м/с7 %
    05:00Ясно и безоблачно+23°C81 %732 мм0.5 м/с10 %
    08:00Ясно и безоблачно+25°C59 %732 мм1.6 м/с16 %
    11:00Ясно и безоблачно+32°C44 %732 мм2.0 м/с26 %
    14:00Ясно и безоблачно+38°C31 %731 мм1.9 м/с31 %
    17:00Практически безоблачно+36°C28 %730 мм1.9 м/с43 %
    20:00Ясно и безоблачно+33°C33 %731 мм3.2 м/с12 %
    23:00Ясно и безоблачно+28°C47 %731 мм1.5 м/с2 %
Мы используем cookies
Соглашаюсь